sensor_id;sensor_type;location;lat;lon;timestamp;P1;durP1;ratioP1;P2;durP2;ratioP2
49488;SDS011;35382;51.484;11.476;2023-04-08T00:00:45;13.02;;;8.50;;
49488;SDS011;35382;51.484;11.476;2023-04-08T00:02:26;13.98;;;9.38;;
49488;SDS011;35382;51.484;11.476;2023-04-08T00:04:07;13.15;;;8.48;;
49488;SDS011;35382;51.484;11.476;2023-04-08T00:05:49;13.48;;;8.90;;
49488;SDS011;35382;51.484;11.476;2023-04-08T00:07:29;14.35;;;8.88;;
49488;SDS011;35382;51.484;11.476;2023-04-08T00:09:11;15.85;;;9.32;;
49488;SDS011;35382;51.484;11.476;2023-04-08T00:10:51;14.25;;;9.05;;
49488;SDS011;35382;51.484;11.476;2023-04-08T00:12:33;13.77;;;8.63;;
49488;SDS011;35382;51.484;11.476;2023-04-08T00:14:14;15.23;;;10.15;;
49488;SDS011;35382;51.484;11.476;2023-04-08T00:15:55;14.15;;;9.88;;
49488;SDS011;35382;51.484;11.476;2023-04-08T00:17:36;15.40;;;9.82;;
49488;SDS011;35382;51.484;11.476;2023-04-08T00:19:17;14.40;;;9.75;;
49488;SDS011;35382;51.484;11.476;2023-04-08T00:20:58;13.50;;;8.95;;
49488;SDS011;35382;51.484;11.476;2023-04-08T00:22:39;14.90;;;10.13;;
49488;SDS011;35382;51.484;11.476;2023-04-08T00:24:20;16.75;;;10.73;;
49488;SDS011;35382;51.484;11.476;2023-04-08T00:26:01;15.80;;;10.68;;
49488;SDS011;35382;51.484;11.476;2023-04-08T00:27:42;15.07;;;10.45;;
49488;SDS011;35382;51.484;11.476;2023-04-08T00:29:23;18.30;;;11.60;;
49488;SDS011;35382;51.484;11.476;2023-04-08T00:31:04;18.38;;;11.82;;
49488;SDS011;35382;51.484;11.476;2023-04-08T00:32:45;20.90;;;12.63;;
49488;SDS011;35382;51.484;11.476;2023-04-08T00:34:27;20.30;;;12.55;;
49488;SDS011;35382;51.484;11.476;2023-04-08T00:36:08;17.92;;;11.32;;
49488;SDS011;35382;51.484;11.476;2023-04-08T00:37:50;19.48;;;12.10;;
49488;SDS011;35382;51.484;11.476;2023-04-08T00:39:31;17.83;;;11.60;;
49488;SDS011;35382;51.484;11.476;2023-04-08T00:41:12;17.48;;;10.20;;
49488;SDS011;35382;51.484;11.476;2023-04-08T00:42:53;18.25;;;11.10;;
49488;SDS011;35382;51.484;11.476;2023-04-08T00:44:36;17.55;;;10.52;;
49488;SDS011;35382;51.484;11.476;2023-04-08T00:46:17;17.38;;;10.13;;
49488;SDS011;35382;51.484;11.476;2023-04-08T00:47:58;16.38;;;9.90;;
49488;SDS011;35382;51.484;11.476;2023-04-08T00:49:40;16.42;;;10.63;;
49488;SDS011;35382;51.484;11.476;2023-04-08T00:51:21;19.30;;;10.90;;
49488;SDS011;35382;51.484;11.476;2023-04-08T00:53:02;19.15;;;11.50;;
49488;SDS011;35382;51.484;11.476;2023-04-08T00:54:43;19.88;;;11.32;;
49488;SDS011;35382;51.484;11.476;2023-04-08T00:56:25;17.35;;;10.23;;
49488;SDS011;35382;51.484;11.476;2023-04-08T00:58:06;16.42;;;9.95;;
49488;SDS011;35382;51.484;11.476;2023-04-08T00:59:47;17.73;;;10.30;;
49488;SDS011;35382;51.484;11.476;2023-04-08T01:05:53;19.13;;;11.07;;
49488;SDS011;35382;51.484;11.476;2023-04-08T01:07:40;15.48;;;9.60;;
49488;SDS011;35382;51.484;11.476;2023-04-08T01:09:27;15.93;;;9.93;;
49488;SDS011;35382;51.484;11.476;2023-04-08T01:11:11;14.63;;;8.65;;
49488;SDS011;35382;51.484;11.476;2023-04-08T01:12:54;12.77;;;7.80;;
49488;SDS011;35382;51.484;11.476;2023-04-08T01:14:41;12.57;;;7.22;;
49488;SDS011;35382;51.484;11.476;2023-04-08T01:16:24;12.45;;;7.07;;
49488;SDS011;35382;51.484;11.476;2023-04-08T01:18:08;13.98;;;7.57;;
49488;SDS011;35382;51.484;11.476;2023-04-08T01:19:51;11.90;;;7.40;;
49488;SDS011;35382;51.484;11.476;2023-04-08T01:21:36;12.30;;;7.43;;
49488;SDS011;35382;51.484;11.476;2023-04-08T01:23:24;11.80;;;7.38;;
49488;SDS011;35382;51.484;11.476;2023-04-08T01:25:20;11.48;;;7.28;;
49488;SDS011;35382;51.484;11.476;2023-04-08T01:27:04;10.35;;;6.38;;
49488;SDS011;35382;51.484;11.476;2023-04-08T01:28:48;11.73;;;6.88;;
49488;SDS011;35382;51.484;11.476;2023-04-08T01:30:31;12.23;;;6.85;;
49488;SDS011;35382;51.484;11.476;2023-04-08T01:32:15;10.32;;;6.03;;
49488;SDS011;35382;51.484;11.476;2023-04-08T01:33:56;11.10;;;6.90;;
49488;SDS011;35382;51.484;11.476;2023-04-08T01:35:39;11.38;;;6.97;;
49488;SDS011;35382;51.484;11.476;2023-04-08T01:37:20;9.02;;;5.32;;
49488;SDS011;35382;51.484;11.476;2023-04-08T01:39:01;9.73;;;5.78;;
49488;SDS011;35382;51.484;11.476;2023-04-08T01:40:46;9.07;;;5.43;;
49488;SDS011;35382;51.484;11.476;2023-04-08T01:42:27;9.40;;;5.38;;
49488;SDS011;35382;51.484;11.476;2023-04-08T01:44:09;9.40;;;5.47;;
49488;SDS011;35382;51.484;11.476;2023-04-08T01:45:51;9.23;;;5.38;;
49488;SDS011;35382;51.484;11.476;2023-04-08T01:47:37;10.70;;;5.78;;
49488;SDS011;35382;51.484;11.476;2023-04-08T01:49:19;8.73;;;5.30;;
49488;SDS011;35382;51.484;11.476;2023-04-08T01:51:00;9.05;;;5.43;;
49488;SDS011;35382;51.484;11.476;2023-04-08T01:52:44;9.95;;;5.85;;
49488;SDS011;35382;51.484;11.476;2023-04-08T01:54:28;9.10;;;5.55;;
49488;SDS011;35382;51.484;11.476;2023-04-08T01:56:10;9.73;;;6.15;;
49488;SDS011;35382;51.484;11.476;2023-04-08T01:57:54;10.02;;;6.13;;
49488;SDS011;35382;51.484;11.476;2023-04-08T01:59:39;10.40;;;6.20;;
49488;SDS011;35382;51.484;11.476;2023-04-08T02:01:22;12.20;;;6.40;;
49488;SDS011;35382;51.484;11.476;2023-04-08T02:03:06;11.77;;;6.35;;
49488;SDS011;35382;51.484;11.476;2023-04-08T02:04:54;11.35;;;6.63;;
49488;SDS011;35382;51.484;11.476;2023-04-08T02:06:35;10.85;;;6.72;;
49488;SDS011;35382;51.484;11.476;2023-04-08T02:08:17;11.23;;;5.97;;
49488;SDS011;35382;51.484;11.476;2023-04-08T02:09:58;11.07;;;6.85;;
49488;SDS011;35382;51.484;11.476;2023-04-08T02:11:39;12.35;;;7.40;;
49488;SDS011;35382;51.484;11.476;2023-04-08T02:13:20;11.73;;;7.22;;
49488;SDS011;35382;51.484;11.476;2023-04-08T02:15:01;12.13;;;7.55;;
49488;SDS011;35382;51.484;11.476;2023-04-08T02:16:52;12.57;;;7.38;;
49488;SDS011;35382;51.484;11.476;2023-04-08T02:18:34;12.27;;;7.50;;
49488;SDS011;35382;51.484;11.476;2023-04-08T02:20:17;11.98;;;7.30;;
49488;SDS011;35382;51.484;11.476;2023-04-08T02:22:04;12.30;;;7.50;;
49488;SDS011;35382;51.484;11.476;2023-04-08T02:23:49;12.70;;;7.63;;
49488;SDS011;35382;51.484;11.476;2023-04-08T02:25:30;12.43;;;8.05;;
49488;SDS011;35382;51.484;11.476;2023-04-08T02:27:17;13.20;;;8.57;;
49488;SDS011;35382;51.484;11.476;2023-04-08T02:28:59;12.43;;;8.35;;
49488;SDS011;35382;51.484;11.476;2023-04-08T02:30:42;15.77;;;9.40;;
49488;SDS011;35382;51.484;11.476;2023-04-08T02:32:28;15.52;;;9.25;;
49488;SDS011;35382;51.484;11.476;2023-04-08T02:34:12;15.32;;;8.88;;
49488;SDS011;35382;51.484;11.476;2023-04-08T02:35:54;15.15;;;8.90;;
49488;SDS011;35382;51.484;11.476;2023-04-08T02:37:37;15.98;;;8.50;;
49488;SDS011;35382;51.484;11.476;2023-04-08T02:39:18;15.32;;;8.70;;
49488;SDS011;35382;51.484;11.476;2023-04-08T02:41:02;13.82;;;7.68;;
49488;SDS011;35382;51.484;11.476;2023-04-08T02:42:43;15.32;;;9.23;;
49488;SDS011;35382;51.484;11.476;2023-04-08T02:44:24;14.65;;;7.85;;
49488;SDS011;35382;51.484;11.476;2023-04-08T02:46:05;16.77;;;8.43;;
49488;SDS011;35382;51.484;11.476;2023-04-08T02:47:46;16.42;;;9.27;;
49488;SDS011;35382;51.484;11.476;2023-04-08T02:49:28;15.35;;;8.52;;
49488;SDS011;35382;51.484;11.476;2023-04-08T02:51:09;15.80;;;8.68;;
49488;SDS011;35382;51.484;11.476;2023-04-08T02:52:49;14.50;;;8.27;;
49488;SDS011;35382;51.484;11.476;2023-04-08T02:54:30;12.48;;;7.70;;
49488;SDS011;35382;51.484;11.476;2023-04-08T02:56:11;13.75;;;8.52;;
49488;SDS011;35382;51.484;11.476;2023-04-08T02:57:52;14.48;;;8.15;;
49488;SDS011;35382;51.484;11.476;2023-04-08T02:59:33;14.05;;;7.50;;
49488;SDS011;35382;51.484;11.476;2023-04-08T03:01:17;13.73;;;7.97;;
49488;SDS011;35382;51.484;11.476;2023-04-08T03:02:58;13.23;;;7.95;;
49488;SDS011;35382;51.484;11.476;2023-04-08T03:04:39;12.82;;;7.53;;
49488;SDS011;35382;51.484;11.476;2023-04-08T03:06:20;14.63;;;8.52;;
49488;SDS011;35382;51.484;11.476;2023-04-08T03:08:00;15.77;;;8.48;;
49488;SDS011;35382;51.484;11.476;2023-04-08T03:09:41;16.20;;;8.52;;
49488;SDS011;35382;51.484;11.476;2023-04-08T03:11:22;14.55;;;8.25;;
49488;SDS011;35382;51.484;11.476;2023-04-08T03:13:03;15.27;;;8.43;;
49488;SDS011;35382;51.484;11.476;2023-04-08T03:14:44;15.05;;;9.02;;
49488;SDS011;35382;51.484;11.476;2023-04-08T03:16:25;16.40;;;8.73;;
49488;SDS011;35382;51.484;11.476;2023-04-08T03:18:06;16.58;;;9.35;;
49488;SDS011;35382;51.484;11.476;2023-04-08T03:19:48;18.63;;;9.48;;
49488;SDS011;35382;51.484;11.476;2023-04-08T03:21:28;16.77;;;9.57;;
49488;SDS011;35382;51.484;11.476;2023-04-08T03:23:11;19.33;;;9.90;;
49488;SDS011;35382;51.484;11.476;2023-04-08T03:24:52;15.80;;;9.50;;
49488;SDS011;35382;51.484;11.476;2023-04-08T03:26:33;15.82;;;9.13;;
49488;SDS011;35382;51.484;11.476;2023-04-08T03:28:14;15.85;;;9.43;;
49488;SDS011;35382;51.484;11.476;2023-04-08T03:29:55;16.50;;;9.60;;
49488;SDS011;35382;51.484;11.476;2023-04-08T03:31:37;18.75;;;9.88;;
49488;SDS011;35382;51.484;11.476;2023-04-08T03:33:18;17.05;;;9.25;;
49488;SDS011;35382;51.484;11.476;2023-04-08T03:34:59;15.75;;;9.10;;
49488;SDS011;35382;51.484;11.476;2023-04-08T03:36:40;15.75;;;9.10;;
49488;SDS011;35382;51.484;11.476;2023-04-08T03:38:21;15.48;;;8.85;;
49488;SDS011;35382;51.484;11.476;2023-04-08T03:40:02;18.98;;;9.38;;
49488;SDS011;35382;51.484;11.476;2023-04-08T03:41:43;16.40;;;8.95;;
49488;SDS011;35382;51.484;11.476;2023-04-08T03:43:24;17.80;;;9.63;;
49488;SDS011;35382;51.484;11.476;2023-04-08T03:45:06;16.88;;;9.63;;
49488;SDS011;35382;51.484;11.476;2023-04-08T03:46:47;17.98;;;10.05;;
49488;SDS011;35382;51.484;11.476;2023-04-08T03:48:28;21.38;;;10.45;;
49488;SDS011;35382;51.484;11.476;2023-04-08T03:50:09;18.55;;;10.02;;
49488;SDS011;35382;51.484;11.476;2023-04-08T03:51:50;17.17;;;9.60;;
49488;SDS011;35382;51.484;11.476;2023-04-08T03:53:31;18.73;;;9.63;;
49488;SDS011;35382;51.484;11.476;2023-04-08T03:55:12;18.10;;;9.98;;
49488;SDS011;35382;51.484;11.476;2023-04-08T03:56:53;16.00;;;9.18;;
49488;SDS011;35382;51.484;11.476;2023-04-08T03:58:35;18.35;;;9.73;;
49488;SDS011;35382;51.484;11.476;2023-04-08T04:00:16;16.13;;;9.30;;
49488;SDS011;35382;51.484;11.476;2023-04-08T04:01:58;15.18;;;8.32;;
49488;SDS011;35382;51.484;11.476;2023-04-08T04:03:39;19.13;;;9.13;;
49488;SDS011;35382;51.484;11.476;2023-04-08T04:05:21;16.83;;;8.70;;
49488;SDS011;35382;51.484;11.476;2023-04-08T04:07:01;16.23;;;8.52;;
49488;SDS011;35382;51.484;11.476;2023-04-08T04:08:42;16.67;;;8.00;;
49488;SDS011;35382;51.484;11.476;2023-04-08T04:10:23;14.77;;;8.48;;
49488;SDS011;35382;51.484;11.476;2023-04-08T04:12:04;15.02;;;7.57;;
49488;SDS011;35382;51.484;11.476;2023-04-08T04:13:45;14.18;;;8.45;;
49488;SDS011;35382;51.484;11.476;2023-04-08T04:15:26;17.60;;;8.55;;
49488;SDS011;35382;51.484;11.476;2023-04-08T04:17:07;19.25;;;9.80;;
49488;SDS011;35382;51.484;11.476;2023-04-08T04:18:48;17.17;;;8.48;;
49488;SDS011;35382;51.484;11.476;2023-04-08T04:20:29;16.77;;;8.27;;
49488;SDS011;35382;51.484;11.476;2023-04-08T04:22:10;18.48;;;9.23;;
49488;SDS011;35382;51.484;11.476;2023-04-08T04:23:51;16.83;;;8.85;;
49488;SDS011;35382;51.484;11.476;2023-04-08T04:25:32;16.08;;;9.18;;
49488;SDS011;35382;51.484;11.476;2023-04-08T04:27:13;16.38;;;9.02;;
49488;SDS011;35382;51.484;11.476;2023-04-08T04:28:56;16.65;;;8.57;;
49488;SDS011;35382;51.484;11.476;2023-04-08T04:30:38;18.92;;;10.02;;
49488;SDS011;35382;51.484;11.476;2023-04-08T04:32:19;18.70;;;9.15;;
49488;SDS011;35382;51.484;11.476;2023-04-08T04:34:00;17.83;;;8.35;;
49488;SDS011;35382;51.484;11.476;2023-04-08T04:35:41;19.13;;;9.00;;
49488;SDS011;35382;51.484;11.476;2023-04-08T04:37:22;19.88;;;8.82;;
49488;SDS011;35382;51.484;11.476;2023-04-08T04:39:03;18.20;;;9.07;;
49488;SDS011;35382;51.484;11.476;2023-04-08T04:40:44;21.30;;;10.18;;
49488;SDS011;35382;51.484;11.476;2023-04-08T04:42:25;21.42;;;10.38;;
49488;SDS011;35382;51.484;11.476;2023-04-08T04:44:06;21.05;;;10.73;;
49488;SDS011;35382;51.484;11.476;2023-04-08T04:45:47;18.85;;;10.38;;
49488;SDS011;35382;51.484;11.476;2023-04-08T04:47:28;19.98;;;10.30;;
49488;SDS011;35382;51.484;11.476;2023-04-08T04:49:11;19.98;;;9.38;;
49488;SDS011;35382;51.484;11.476;2023-04-08T04:50:53;19.58;;;9.80;;
49488;SDS011;35382;51.484;11.476;2023-04-08T04:52:35;21.35;;;10.10;;
49488;SDS011;35382;51.484;11.476;2023-04-08T04:54:16;19.02;;;9.38;;
49488;SDS011;35382;51.484;11.476;2023-04-08T04:55:57;22.83;;;10.98;;
49488;SDS011;35382;51.484;11.476;2023-04-08T04:57:40;19.05;;;9.73;;
49488;SDS011;35382;51.484;11.476;2023-04-08T04:59:21;19.05;;;9.57;;
49488;SDS011;35382;51.484;11.476;2023-04-08T05:01:02;18.67;;;9.38;;
49488;SDS011;35382;51.484;11.476;2023-04-08T05:02:43;17.63;;;9.15;;
49488;SDS011;35382;51.484;11.476;2023-04-08T05:04:24;16.20;;;9.38;;
49488;SDS011;35382;51.484;11.476;2023-04-08T05:06:06;17.95;;;9.18;;
49488;SDS011;35382;51.484;11.476;2023-04-08T05:07:47;18.70;;;9.68;;
49488;SDS011;35382;51.484;11.476;2023-04-08T05:09:28;18.05;;;9.43;;
49488;SDS011;35382;51.484;11.476;2023-04-08T05:11:09;17.40;;;9.00;;
49488;SDS011;35382;51.484;11.476;2023-04-08T05:12:50;18.40;;;8.63;;
49488;SDS011;35382;51.484;11.476;2023-04-08T05:14:31;17.60;;;9.43;;
49488;SDS011;35382;51.484;11.476;2023-04-08T05:16:13;20.05;;;9.18;;
49488;SDS011;35382;51.484;11.476;2023-04-08T05:17:54;15.63;;;8.02;;
49488;SDS011;35382;51.484;11.476;2023-04-08T05:19:38;18.30;;;8.68;;
49488;SDS011;35382;51.484;11.476;2023-04-08T05:21:19;16.83;;;9.18;;
49488;SDS011;35382;51.484;11.476;2023-04-08T05:23:00;19.65;;;10.00;;
49488;SDS011;35382;51.484;11.476;2023-04-08T05:24:41;19.17;;;10.18;;
49488;SDS011;35382;51.484;11.476;2023-04-08T05:26:22;17.60;;;9.48;;
49488;SDS011;35382;51.484;11.476;2023-04-08T05:28:03;16.90;;;9.48;;
49488;SDS011;35382;51.484;11.476;2023-04-08T05:29:44;17.05;;;9.32;;
49488;SDS011;35382;51.484;11.476;2023-04-08T05:31:25;16.17;;;8.43;;
49488;SDS011;35382;51.484;11.476;2023-04-08T05:33:06;19.08;;;9.45;;
49488;SDS011;35382;51.484;11.476;2023-04-08T05:34:47;18.38;;;9.27;;
49488;SDS011;35382;51.484;11.476;2023-04-08T05:36:28;19.40;;;9.52;;
49488;SDS011;35382;51.484;11.476;2023-04-08T05:38:09;18.63;;;9.13;;
49488;SDS011;35382;51.484;11.476;2023-04-08T05:39:51;18.98;;;9.95;;
49488;SDS011;35382;51.484;11.476;2023-04-08T05:41:32;19.60;;;10.40;;
49488;SDS011;35382;51.484;11.476;2023-04-08T05:43:13;19.67;;;9.57;;
49488;SDS011;35382;51.484;11.476;2023-04-08T05:44:54;20.55;;;10.07;;
49488;SDS011;35382;51.484;11.476;2023-04-08T05:46:34;20.40;;;10.50;;
49488;SDS011;35382;51.484;11.476;2023-04-08T05:48:15;23.13;;;12.57;;
49488;SDS011;35382;51.484;11.476;2023-04-08T05:49:56;18.83;;;10.35;;
49488;SDS011;35382;51.484;11.476;2023-04-08T05:51:37;18.35;;;9.82;;
49488;SDS011;35382;51.484;11.476;2023-04-08T05:53:18;23.20;;;11.20;;
49488;SDS011;35382;51.484;11.476;2023-04-08T05:54:59;20.23;;;9.98;;
49488;SDS011;35382;51.484;11.476;2023-04-08T05:56:40;24.13;;;13.15;;
49488;SDS011;35382;51.484;11.476;2023-04-08T05:58:21;48.53;;;22.70;;
49488;SDS011;35382;51.484;11.476;2023-04-08T06:00:06;20.88;;;10.65;;
49488;SDS011;35382;51.484;11.476;2023-04-08T06:01:51;20.02;;;10.10;;
49488;SDS011;35382;51.484;11.476;2023-04-08T06:03:31;20.60;;;11.75;;
49488;SDS011;35382;51.484;11.476;2023-04-08T06:05:12;21.65;;;11.40;;
49488;SDS011;35382;51.484;11.476;2023-04-08T06:06:53;20.23;;;11.07;;
49488;SDS011;35382;51.484;11.476;2023-04-08T06:08:36;23.95;;;12.00;;
49488;SDS011;35382;51.484;11.476;2023-04-08T06:10:17;22.08;;;11.48;;
49488;SDS011;35382;51.484;11.476;2023-04-08T06:11:58;19.63;;;10.48;;
49488;SDS011;35382;51.484;11.476;2023-04-08T06:13:39;25.15;;;12.10;;
49488;SDS011;35382;51.484;11.476;2023-04-08T06:15:20;23.42;;;13.20;;
49488;SDS011;35382;51.484;11.476;2023-04-08T06:17:01;24.38;;;13.35;;
49488;SDS011;35382;51.484;11.476;2023-04-08T06:18:42;26.73;;;15.57;;
49488;SDS011;35382;51.484;11.476;2023-04-08T06:20:23;25.98;;;13.65;;
49488;SDS011;35382;51.484;11.476;2023-04-08T06:22:05;29.65;;;15.93;;
49488;SDS011;35382;51.484;11.476;2023-04-08T06:23:46;26.95;;;13.93;;
49488;SDS011;35382;51.484;11.476;2023-04-08T06:25:27;26.50;;;13.15;;
49488;SDS011;35382;51.484;11.476;2023-04-08T06:27:07;26.77;;;13.57;;
49488;SDS011;35382;51.484;11.476;2023-04-08T06:28:50;26.33;;;12.95;;
49488;SDS011;35382;51.484;11.476;2023-04-08T06:30:31;26.65;;;13.82;;
49488;SDS011;35382;51.484;11.476;2023-04-08T06:32:12;23.70;;;12.88;;
49488;SDS011;35382;51.484;11.476;2023-04-08T06:33:54;23.80;;;13.02;;
49488;SDS011;35382;51.484;11.476;2023-04-08T06:35:35;25.63;;;13.20;;
49488;SDS011;35382;51.484;11.476;2023-04-08T06:37:17;27.17;;;13.48;;
49488;SDS011;35382;51.484;11.476;2023-04-08T06:38:58;26.85;;;13.82;;
49488;SDS011;35382;51.484;11.476;2023-04-08T06:40:39;25.17;;;13.50;;
49488;SDS011;35382;51.484;11.476;2023-04-08T06:42:20;26.60;;;14.48;;
49488;SDS011;35382;51.484;11.476;2023-04-08T06:44:19;26.50;;;13.88;;
49488;SDS011;35382;51.484;11.476;2023-04-08T06:46:00;25.42;;;12.95;;
49488;SDS011;35382;51.484;11.476;2023-04-08T06:47:41;22.38;;;12.73;;
49488;SDS011;35382;51.484;11.476;2023-04-08T06:49:22;20.95;;;11.85;;
49488;SDS011;35382;51.484;11.476;2023-04-08T06:51:03;23.58;;;12.75;;
49488;SDS011;35382;51.484;11.476;2023-04-08T06:52:44;19.75;;;10.38;;
49488;SDS011;35382;51.484;11.476;2023-04-08T06:54:24;22.70;;;11.48;;
49488;SDS011;35382;51.484;11.476;2023-04-08T06:56:08;21.75;;;12.10;;
49488;SDS011;35382;51.484;11.476;2023-04-08T06:57:49;22.75;;;12.00;;
49488;SDS011;35382;51.484;11.476;2023-04-08T06:59:30;24.33;;;13.98;;
49488;SDS011;35382;51.484;11.476;2023-04-08T07:01:11;22.58;;;11.82;;
49488;SDS011;35382;51.484;11.476;2023-04-08T07:02:52;16.80;;;10.13;;
49488;SDS011;35382;51.484;11.476;2023-04-08T07:04:36;18.58;;;10.73;;
49488;SDS011;35382;51.484;11.476;2023-04-08T07:06:17;20.75;;;10.93;;
49488;SDS011;35382;51.484;11.476;2023-04-08T07:07:58;20.38;;;11.02;;
49488;SDS011;35382;51.484;11.476;2023-04-08T07:09:39;23.52;;;12.20;;
49488;SDS011;35382;51.484;11.476;2023-04-08T07:11:22;21.05;;;12.15;;
49488;SDS011;35382;51.484;11.476;2023-04-08T07:13:03;19.63;;;11.15;;
49488;SDS011;35382;51.484;11.476;2023-04-08T07:14:44;23.10;;;11.70;;
49488;SDS011;35382;51.484;11.476;2023-04-08T07:16:25;22.40;;;12.13;;
49488;SDS011;35382;51.484;11.476;2023-04-08T07:18:06;23.27;;;12.43;;
49488;SDS011;35382;51.484;11.476;2023-04-08T07:19:47;19.73;;;11.60;;
49488;SDS011;35382;51.484;11.476;2023-04-08T07:21:29;19.88;;;10.32;;
49488;SDS011;35382;51.484;11.476;2023-04-08T07:23:10;20.33;;;10.43;;
49488;SDS011;35382;51.484;11.476;2023-04-08T07:24:51;16.45;;;9.98;;
49488;SDS011;35382;51.484;11.476;2023-04-08T07:26:32;16.63;;;9.55;;
49488;SDS011;35382;51.484;11.476;2023-04-08T07:28:13;16.60;;;8.65;;
49488;SDS011;35382;51.484;11.476;2023-04-08T07:29:55;14.88;;;8.10;;
49488;SDS011;35382;51.484;11.476;2023-04-08T07:31:36;14.27;;;8.02;;
49488;SDS011;35382;51.484;11.476;2023-04-08T07:33:17;14.35;;;8.48;;
49488;SDS011;35382;51.484;11.476;2023-04-08T07:34:58;14.70;;;8.20;;
49488;SDS011;35382;51.484;11.476;2023-04-08T07:36:40;12.45;;;7.88;;
49488;SDS011;35382;51.484;11.476;2023-04-08T07:38:21;14.00;;;8.07;;
49488;SDS011;35382;51.484;11.476;2023-04-08T07:40:02;17.08;;;8.45;;
49488;SDS011;35382;51.484;11.476;2023-04-08T07:41:43;14.13;;;8.48;;
49488;SDS011;35382;51.484;11.476;2023-04-08T07:43:24;15.35;;;7.80;;
49488;SDS011;35382;51.484;11.476;2023-04-08T07:45:05;11.93;;;7.15;;
49488;SDS011;35382;51.484;11.476;2023-04-08T07:46:46;14.70;;;7.68;;
49488;SDS011;35382;51.484;11.476;2023-04-08T07:48:31;12.15;;;6.72;;
49488;SDS011;35382;51.484;11.476;2023-04-08T07:50:13;10.77;;;6.47;;
49488;SDS011;35382;51.484;11.476;2023-04-08T07:51:54;13.60;;;7.97;;
49488;SDS011;35382;51.484;11.476;2023-04-08T07:53:35;12.18;;;7.28;;
49488;SDS011;35382;51.484;11.476;2023-04-08T07:55:16;11.65;;;6.90;;
49488;SDS011;35382;51.484;11.476;2023-04-08T07:56:57;12.20;;;7.28;;
49488;SDS011;35382;51.484;11.476;2023-04-08T07:58:39;14.65;;;7.80;;
49488;SDS011;35382;51.484;11.476;2023-04-08T08:00:20;12.98;;;7.00;;
49488;SDS011;35382;51.484;11.476;2023-04-08T08:02:01;13.43;;;7.50;;
49488;SDS011;35382;51.484;11.476;2023-04-08T08:03:42;14.70;;;8.15;;
49488;SDS011;35382;51.484;11.476;2023-04-08T08:05:23;12.93;;;7.45;;
49488;SDS011;35382;51.484;11.476;2023-04-08T08:07:04;13.75;;;7.90;;
49488;SDS011;35382;51.484;11.476;2023-04-08T08:08:45;13.45;;;7.30;;
49488;SDS011;35382;51.484;11.476;2023-04-08T08:10:26;12.05;;;7.25;;
49488;SDS011;35382;51.484;11.476;2023-04-08T08:12:07;12.95;;;7.10;;
49488;SDS011;35382;51.484;11.476;2023-04-08T08:13:48;13.23;;;7.72;;
49488;SDS011;35382;51.484;11.476;2023-04-08T08:15:29;12.77;;;7.20;;
49488;SDS011;35382;51.484;11.476;2023-04-08T08:17:10;12.88;;;7.78;;
49488;SDS011;35382;51.484;11.476;2023-04-08T08:18:52;13.63;;;7.80;;
49488;SDS011;35382;51.484;11.476;2023-04-08T08:20:34;12.27;;;7.18;;
49488;SDS011;35382;51.484;11.476;2023-04-08T08:22:15;13.05;;;8.23;;
49488;SDS011;35382;51.484;11.476;2023-04-08T08:23:56;12.88;;;6.95;;
49488;SDS011;35382;51.484;11.476;2023-04-08T08:25:39;13.73;;;7.60;;
49488;SDS011;35382;51.484;11.476;2023-04-08T08:27:20;12.20;;;7.38;;
49488;SDS011;35382;51.484;11.476;2023-04-08T08:29:01;11.63;;;7.57;;
49488;SDS011;35382;51.484;11.476;2023-04-08T08:30:42;11.88;;;7.20;;
49488;SDS011;35382;51.484;11.476;2023-04-08T08:32:23;12.65;;;7.93;;
49488;SDS011;35382;51.484;11.476;2023-04-08T08:34:04;13.10;;;7.28;;
49488;SDS011;35382;51.484;11.476;2023-04-08T08:35:45;12.55;;;7.15;;
49488;SDS011;35382;51.484;11.476;2023-04-08T08:37:26;12.05;;;6.63;;
49488;SDS011;35382;51.484;11.476;2023-04-08T08:39:07;11.35;;;6.95;;
49488;SDS011;35382;51.484;11.476;2023-04-08T08:40:55;10.73;;;5.88;;
49488;SDS011;35382;51.484;11.476;2023-04-08T08:42:36;11.13;;;6.50;;
49488;SDS011;35382;51.484;11.476;2023-04-08T08:44:18;10.45;;;6.38;;
49488;SDS011;35382;51.484;11.476;2023-04-08T08:45:59;9.63;;;6.50;;
49488;SDS011;35382;51.484;11.476;2023-04-08T08:47:40;10.63;;;6.15;;
49488;SDS011;35382;51.484;11.476;2023-04-08T08:49:21;11.18;;;6.45;;
49488;SDS011;35382;51.484;11.476;2023-04-08T08:51:09;10.60;;;6.25;;
49488;SDS011;35382;51.484;11.476;2023-04-08T08:52:51;10.38;;;6.45;;
49488;SDS011;35382;51.484;11.476;2023-04-08T08:54:32;9.93;;;6.10;;
49488;SDS011;35382;51.484;11.476;2023-04-08T08:56:13;10.77;;;6.22;;
49488;SDS011;35382;51.484;11.476;2023-04-08T08:57:54;12.52;;;6.72;;
49488;SDS011;35382;51.484;11.476;2023-04-08T08:59:35;12.95;;;6.97;;
49488;SDS011;35382;51.484;11.476;2023-04-08T09:03:29;17.58;;;8.93;;
49488;SDS011;35382;51.484;11.476;2023-04-08T09:05:10;15.52;;;9.30;;
49488;SDS011;35382;51.484;11.476;2023-04-08T09:07:07;15.68;;;9.52;;
49488;SDS011;35382;51.484;11.476;2023-04-08T09:08:49;15.70;;;9.50;;
49488;SDS011;35382;51.484;11.476;2023-04-08T09:10:30;17.13;;;9.80;;
49488;SDS011;35382;51.484;11.476;2023-04-08T09:12:11;16.73;;;9.48;;
49488;SDS011;35382;51.484;11.476;2023-04-08T09:13:53;16.67;;;9.65;;
49488;SDS011;35382;51.484;11.476;2023-04-08T09:15:38;15.30;;;9.85;;
49488;SDS011;35382;51.484;11.476;2023-04-08T09:17:41;17.70;;;9.88;;
49488;SDS011;35382;51.484;11.476;2023-04-08T09:19:22;16.98;;;9.10;;
49488;SDS011;35382;51.484;11.476;2023-04-08T09:21:04;16.08;;;9.48;;
49488;SDS011;35382;51.484;11.476;2023-04-08T09:24:33;16.17;;;9.07;;
49488;SDS011;35382;51.484;11.476;2023-04-08T09:26:16;19.13;;;10.07;;
49488;SDS011;35382;51.484;11.476;2023-04-08T09:27:59;19.38;;;10.95;;
49488;SDS011;35382;51.484;11.476;2023-04-08T09:29:41;18.95;;;11.75;;
49488;SDS011;35382;51.484;11.476;2023-04-08T09:31:23;17.75;;;11.30;;
49488;SDS011;35382;51.484;11.476;2023-04-08T09:33:06;20.27;;;11.75;;
49488;SDS011;35382;51.484;11.476;2023-04-08T09:34:47;18.95;;;11.20;;
49488;SDS011;35382;51.484;11.476;2023-04-08T09:36:28;20.73;;;12.13;;
49488;SDS011;35382;51.484;11.476;2023-04-08T09:38:10;20.73;;;11.65;;
49488;SDS011;35382;51.484;11.476;2023-04-08T09:39:51;19.35;;;11.45;;
49488;SDS011;35382;51.484;11.476;2023-04-08T09:41:35;19.10;;;11.18;;
49488;SDS011;35382;51.484;11.476;2023-04-08T09:43:18;21.50;;;12.98;;
49488;SDS011;35382;51.484;11.476;2023-04-08T09:45:03;22.65;;;12.63;;
49488;SDS011;35382;51.484;11.476;2023-04-08T09:46:50;22.05;;;12.65;;
49488;SDS011;35382;51.484;11.476;2023-04-08T09:48:49;20.00;;;12.40;;
49488;SDS011;35382;51.484;11.476;2023-04-08T09:50:46;22.70;;;13.15;;
49488;SDS011;35382;51.484;11.476;2023-04-08T09:52:32;24.02;;;13.63;;
49488;SDS011;35382;51.484;11.476;2023-04-08T09:54:19;23.95;;;13.48;;
49488;SDS011;35382;51.484;11.476;2023-04-08T09:56:04;21.27;;;11.88;;
49488;SDS011;35382;51.484;11.476;2023-04-08T09:57:51;20.10;;;12.18;;
49488;SDS011;35382;51.484;11.476;2023-04-08T09:59:48;21.30;;;11.73;;
49488;SDS011;35382;51.484;11.476;2023-04-08T10:01:54;23.45;;;12.90;;
49488;SDS011;35382;51.484;11.476;2023-04-08T10:03:39;22.45;;;12.50;;